Time;durP1;ratioP1;P1;durP2;ratioP2;P2;SDS_P1;SDS_P2;PMS_P1;PMS_P2;Temp;Humidity;BMP_temperature;BMP_pressure;BME280_temperature;BME280_humidity;BME280_pressure;Samples;Min_cycle;Max_cycle;Signal;HPM_P1;HPM_P2
2023/06/06 00:01:19;;;;;;;25.95;12.23;;;;;;;12.66;100.00;102019.78;5059275;28;20067;-76
2023/06/06 00:03:45;;;;;;;22.33;12.48;;;;;;;12.67;100.00;102019.69;5051471;28;20052;-75
2023/06/06 00:06:16;;;;;;;19.98;10.82;;;;;;;12.65;100.00;102018.91;5047302;28;20079;-76
2023/06/06 00:08:42;;;;;;;20.83;11.27;;;;;;;12.68;100.00;102029.44;5051998;28;20034;-76
2023/06/06 00:11:09;;;;;;;17.90;11.13;;;;;;;12.54;100.00;102021.25;5040555;28;20033;-76
2023/06/06 00:13:40;;;;;;;26.83;12.50;;;;;;;12.34;100.00;102022.31;5050505;28;20040;-75
2023/06/06 00:16:06;;;;;;;23.00;12.60;;;;;;;12.55;100.00;102025.69;5043807;28;20132;-76
2023/06/06 00:18:35;;;;;;;23.02;11.50;;;;;;;12.31;100.00;102025.16;5042199;28;20044;-76
2023/06/06 00:21:00;;;;;;;26.73;12.73;;;;;;;12.23;100.00;102038.03;5042219;28;20037;-78
2023/06/06 00:23:26;;;;;;;25.88;12.32;;;;;;;12.18;100.00;102029.38;5041543;28;20099;-76
2023/06/06 00:25:55;;;;;;;25.35;11.90;;;;;;;12.18;100.00;102022.22;5048119;28;20371;-78
2023/06/06 00:28:20;;;;;;;21.77;12.13;;;;;;;12.24;100.00;102026.41;5044776;28;20044;-77
2023/06/06 00:30:46;;;;;;;27.27;12.32;;;;;;;12.23;100.00;102032.69;5041736;28;20039;-77
2023/06/06 00:33:12;;;;;;;21.17;12.15;;;;;;;12.13;100.00;102024.28;5053933;28;20067;-77
2023/06/06 00:35:40;;;;;;;30.77;12.60;;;;;;;12.23;100.00;102022.00;5049368;28;20115;-76
2023/06/06 00:38:07;;;;;;;23.33;13.27;;;;;;;12.09;100.00;102025.38;5062015;28;20061;-77
2023/06/06 00:40:36;;;;;;;18.13;11.82;;;;;;;12.17;100.00;102019.66;5051874;28;20653;-77
2023/06/06 00:43:02;;;;;;;22.33;13.07;;;;;;;11.89;100.00;102026.38;5066358;28;20151;-77
2023/06/06 00:45:28;;;;;;;20.25;12.40;;;;;;;12.02;100.00;102020.44;5063084;28;20388;-78
2023/06/06 00:47:53;;;;;;;22.65;12.43;;;;;;;11.75;100.00;102022.66;5063891;28;20068;-77
2023/06/06 00:50:21;;;;;;;19.63;11.23;;;;;;;11.76;100.00;102025.22;5052475;28;20056;-78
2023/06/06 00:52:49;;;;;;;20.35;11.45;;;;;;;11.66;100.00;102027.50;5065284;28;20039;-77
2023/06/06 00:55:17;;;;;;;25.70;12.32;;;;;;;11.77;100.00;102031.44;5071563;28;20075;-77
2023/06/06 00:57:44;;;;;;;22.98;12.20;;;;;;;11.63;100.00;102027.63;5066626;28;20096;-77
2023/06/06 01:00:12;;;;;;;17.73;11.43;;;;;;;11.83;100.00;102024.00;5052114;28;20031;-75
2023/06/06 01:02:43;;;;;;;19.55;11.27;;;;;;;11.68;100.00;102027.41;5061987;28;20025;-76
2023/06/06 01:05:10;;;;;;;18.55;11.15;;;;;;;11.69;100.00;102031.81;5059693;28;20063;-76
2023/06/06 01:07:42;;;;;;;25.98;12.25;;;;;;;11.67;100.00;102029.22;5062161;28;20055;-76
2023/06/06 01:10:10;;;;;;;18.88;11.93;;;;;;;11.78;100.00;102015.31;5065557;28;20145;-75
2023/06/06 01:13:02;;;;;;;18.00;10.75;;;;;;;11.58;100.00;102020.78;5039802;28;20142;-76
2023/06/06 01:15:42;;;;;;;23.42;11.68;;;;;;;11.67;100.00;102025.69;5049331;28;20096;-77
2023/06/06 01:18:12;;;;;;;21.52;11.77;;;;;;;11.68;100.00;102014.91;5065853;28;20106;-76
2023/06/06 01:20:40;;;;;;;22.15;12.10;;;;;;;11.48;100.00;102020.34;5048213;28;20033;-76
2023/06/06 01:23:11;;;;;;;23.17;11.95;;;;;;;11.56;100.00;102028.88;5063628;28;20112;-76
2023/06/06 01:25:40;;;;;;;24.33;12.38;;;;;;;11.60;100.00;102016.25;5054500;28;20222;-76
2023/06/06 01:28:13;;;;;;;20.73;12.55;;;;;;;11.40;100.00;102020.75;5071188;28;20159;-76
2023/06/06 01:30:42;;;;;;;23.42;12.27;;;;;;;11.51;100.00;102017.56;5038960;28;21039;-76
2023/06/06 01:33:15;;;;;;;19.98;11.38;;;;;;;11.43;100.00;102027.72;5062562;28;20032;-76
2023/06/06 01:36:05;;;;;;;24.80;12.95;;;;;;;11.43;100.00;102018.84;5050641;28;20194;-76
2023/06/06 01:38:55;;;;;;;21.35;12.10;;;;;;;11.46;100.00;102027.59;5049086;28;20051;-76
2023/06/06 01:41:23;;;;;;;23.13;12.20;;;;;;;11.52;100.00;102026.44;5046935;28;20029;-76
2023/06/06 01:43:51;;;;;;;27.38;13.25;;;;;;;11.29;100.00;102024.84;5055194;28;20537;-76
2023/06/06 01:46:19;;;;;;;26.13;12.82;;;;;;;11.36;100.00;102031.66;5029693;28;20344;-76
2023/06/06 01:48:46;;;;;;;27.08;12.57;;;;;;;11.22;100.00;102028.75;5056363;28;20033;-76
2023/06/06 01:51:12;;;;;;;23.83;13.27;;;;;;;11.26;100.00;102020.53;5056313;28;21071;-77
2023/06/06 01:53:40;;;;;;;24.85;12.43;;;;;;;11.37;100.00;102028.88;5061732;28;20032;-77
2023/06/06 01:56:12;;;;;;;21.75;12.10;;;;;;;11.21;100.00;102035.03;5065773;28;20033;-78
2023/06/06 01:58:41;;;;;;;23.15;13.43;;;;;;;11.04;100.00;102020.66;5036184;28;20043;-78
2023/06/06 02:01:08;;;;;;;21.35;12.35;;;;;;;11.32;100.00;102030.06;5047699;28;20053;-78
2023/06/06 02:03:36;;;;;;;26.50;13.13;;;;;;;11.26;100.00;102027.69;5019284;28;20033;-77
2023/06/06 02:06:04;;;;;;;22.42;12.05;;;;;;;11.27;100.00;102024.06;5055822;28;20037;-78
2023/06/06 02:08:30;;;;;;;20.15;10.98;;;;;;;11.25;100.00;102031.28;5060447;28;20083;-77
2023/06/06 02:10:57;;;;;;;23.42;12.60;;;;;;;11.11;100.00;102022.13;5071943;28;20041;-77
2023/06/06 02:13:25;;;;;;;23.17;12.85;;;;;;;10.98;100.00;102034.28;5021933;28;20041;-77
2023/06/06 02:15:51;;;;;;;25.67;13.20;;;;;;;10.88;100.00;102027.63;5067454;28;20037;-77
2023/06/06 02:18:17;;;;;;;26.67;14.02;;;;;;;11.02;100.00;102030.53;5050114;28;20041;-77
2023/06/06 02:20:42;;;;;;;21.55;11.80;;;;;;;11.06;100.00;102029.47;5056691;28;20037;-78
2023/06/06 02:23:10;;;;;;;22.00;12.38;;;;;;;10.86;100.00;102034.84;5035366;28;20033;-79
2023/06/06 02:25:37;;;;;;;24.75;13.60;;;;;;;11.03;100.00;102034.06;5061375;28;20020;-76
2023/06/06 02:28:04;;;;;;;24.13;13.52;;;;;;;11.08;100.00;102032.91;5054610;28;21048;-76
2023/06/06 02:30:29;;;;;;;26.42;13.05;;;;;;;10.88;100.00;102035.63;5065522;28;20124;-77
2023/06/06 02:32:56;;;;;;;31.02;13.35;;;;;;;10.77;100.00;102029.94;5039678;28;20040;-76
2023/06/06 02:35:22;;;;;;;27.20;14.02;;;;;;;10.83;100.00;102034.97;5048645;28;20048;-76
2023/06/06 02:37:48;;;;;;;21.98;13.02;;;;;;;10.75;100.00;102029.16;5047703;28;20060;-76
2023/06/06 02:40:15;;;;;;;25.63;12.77;;;;;;;10.80;100.00;102032.47;5063093;28;20040;-76
2023/06/06 02:42:41;;;;;;;24.25;13.38;;;;;;;10.79;100.00;102031.63;5055378;28;20071;-77
2023/06/06 02:45:11;;;;;;;27.55;12.90;;;;;;;10.86;100.00;102032.19;5046251;28;20037;-76
2023/06/06 02:47:38;;;;;;;26.98;13.20;;;;;;;10.79;100.00;102031.63;5046062;28;20093;-77
2023/06/06 02:50:10;;;;;;;28.85;13.13;;;;;;;10.82;100.00;102022.59;5052373;28;20041;-77
2023/06/06 02:52:40;;;;;;;26.23;12.63;;;;;;;10.89;100.00;102024.91;5049394;28;20037;-76
2023/06/06 02:55:09;;;;;;;26.00;13.10;;;;;;;10.78;100.00;102034.31;5064866;28;20029;-76
2023/06/06 02:57:40;;;;;;;30.23;13.68;;;;;;;10.78;100.00;102029.00;5068458;28;20036;-76
2023/06/06 03:00:08;;;;;;;23.80;13.23;;;;;;;10.63;100.00;102026.06;5052613;28;20175;-77
2023/06/06 03:02:36;;;;;;;25.15;13.02;;;;;;;10.77;100.00;102032.59;5037421;28;20033;-76
2023/06/06 03:05:04;;;;;;;24.60;14.10;;;;;;;10.76;100.00;102026.41;5035046;28;20219;-76
2023/06/06 03:07:31;;;;;;;25.05;13.45;;;;;;;10.71;100.00;102035.56;5055862;28;20123;-77
2023/06/06 03:09:58;;;;;;;25.70;14.00;;;;;;;10.47;100.00;102030.34;5045839;28;20033;-77
2023/06/06 03:12:29;;;;;;;28.65;14.55;;;;;;;10.62;100.00;102034.16;5036721;28;20175;-77
2023/06/06 03:14:55;;;;;;;30.42;14.07;;;;;;;10.57;100.00;102038.81;5054356;28;20036;-76
2023/06/06 03:17:21;;;;;;;27.42;15.23;;;;;;;10.65;100.00;102035.84;5023320;28;20040;-77
2023/06/06 03:19:48;;;;;;;23.38;13.40;;;;;;;10.68;100.00;102036.53;5070565;28;20041;-76
2023/06/06 03:22:17;;;;;;;26.17;13.73;;;;;;;10.72;100.00;102035.47;5048578;28;20140;-77
2023/06/06 03:24:49;;;;;;;29.27;14.32;;;;;;;10.53;100.00;102040.75;5053111;28;20041;-76
2023/06/06 03:27:16;;;;;;;30.40;14.75;;;;;;;10.57;100.00;102031.69;5051387;28;20040;-75
2023/06/06 03:29:41;;;;;;;27.02;14.32;;;;;;;10.54;100.00;102037.19;5051891;28;20037;-76
2023/06/06 03:32:10;;;;;;;26.48;14.85;;;;;;;10.61;100.00;102049.28;5032533;28;20510;-76
2023/06/06 03:34:39;;;;;;;27.42;15.32;;;;;;;10.80;100.00;102040.47;5036678;28;20036;-75
2023/06/06 03:37:07;;;;;;;28.45;14.32;;;;;;;10.68;100.00;102028.53;5050215;28;20053;-77
2023/06/06 03:39:36;;;;;;;30.23;15.57;;;;;;;11.01;100.00;102035.97;5042008;28;20045;-76
2023/06/06 03:42:03;;;;;;;30.67;15.40;;;;;;;10.84;100.00;102037.59;5054095;28;20125;-76
2023/06/06 03:44:28;;;;;;;29.48;15.27;;;;;;;11.00;100.00;102040.44;5050155;28;20071;-76
2023/06/06 03:46:54;;;;;;;25.35;14.65;;;;;;;11.07;100.00;102028.53;5052846;28;20042;-77
2023/06/06 03:49:20;;;;;;;27.13;14.32;;;;;;;11.26;100.00;102036.56;5064271;28;20431;-76
2023/06/06 03:51:46;;;;;;;27.38;14.13;;;;;;;11.74;100.00;102032.44;5036659;28;20119;-78
2023/06/06 03:54:12;;;;;;;27.77;13.90;;;;;;;11.66;100.00;102038.19;5042279;28;20029;-78
2023/06/06 03:56:42;;;;;;;28.20;13.57;;;;;;;11.36;100.00;102039.66;5044240;28;20048;-77
2023/06/06 03:59:12;;;;;;;25.15;13.63;;;;;;;11.45;100.00;102039.22;5072921;28;20153;-76
2023/06/06 04:01:40;;;;;;;27.83;13.38;;;;;;;11.66;100.00;102046.19;5052130;28;20036;-75
2023/06/06 04:04:08;;;;;;;25.40;13.77;;;;;;;12.14;100.00;102020.66;5066803;28;20099;-77
2023/06/06 04:06:44;;;;;;;29.92;14.02;;;;;;;11.92;100.00;102025.38;5054221;28;21039;-76
2023/06/06 04:09:13;;;;;;;23.38;13.02;;;;;;;11.94;100.00;102023.47;5046612;28;20063;-75
2023/06/06 04:11:40;;;;;;;27.63;13.40;;;;;;;12.36;100.00;102020.44;5036132;28;20044;-77
2023/06/06 04:14:06;;;;;;;27.80;13.95;;;;;;;12.87;100.00;102020.44;5035579;28;21196;-78
2023/06/06 04:16:32;;;;;;;21.20;13.20;;;;;;;12.33;100.00;102027.75;5049016;28;20044;-78
2023/06/06 04:18:57;;;;;;;21.83;12.48;;;;;;;13.16;100.00;102018.84;5072430;28;20055;-78
2023/06/06 04:21:23;;;;;;;25.23;13.40;;;;;;;12.92;100.00;102023.72;5057684;28;20028;-78
2023/06/06 04:23:49;;;;;;;25.35;12.38;;;;;;;13.28;100.00;102023.53;5068110;28;20040;-78
2023/06/06 04:26:26;;;;;;;25.33;13.40;;;;;;;13.34;100.00;102020.50;5072608;28;20593;-77
2023/06/06 04:28:53;;;;;;;20.98;12.00;;;;;;;13.24;100.00;102019.28;5065402;28;20052;-78
2023/06/06 04:31:23;;;;;;;21.90;12.57;;;;;;;13.33;100.00;102020.59;5055571;28;20712;-77
2023/06/06 04:33:53;;;;;;;20.55;12.13;;;;;;;13.54;100.00;102021.19;5044006;28;20032;-78
2023/06/06 04:36:21;;;;;;;24.60;12.95;;;;;;;14.02;100.00;102013.97;5075515;28;20050;-76
2023/06/06 04:38:49;;;;;;;22.08;11.70;;;;;;;13.98;100.00;102011.44;5030315;28;20049;-77
2023/06/06 04:41:23;;;;;;;18.73;12.50;;;;;;;14.28;100.00;102013.25;5052004;28;20041;-77
2023/06/06 04:43:49;;;;;;;21.38;12.20;;;;;;;14.05;100.00;102022.66;5059470;28;20594;-77
2023/06/06 04:46:21;;;;;;;19.27;11.73;;;;;;;14.36;100.00;102015.50;5053643;28;20145;-77
2023/06/06 04:48:53;;;;;;;;;;;;;;;14.38;100.00;102011.75;5066641;28;20064;-76
2023/06/06 04:51:30;;;;;;;23.50;11.73;;;;;;;14.82;100.00;102012.69;5049243;28;19917;-77
2023/06/06 04:54:01;;;;;;;20.02;12.20;;;;;;;14.33;100.00;102011.16;5073105;28;20349;-77
2023/06/06 04:56:30;;;;;;;18.55;11.35;;;;;;;14.67;100.00;102012.69;5076582;28;20718;-77
2023/06/06 04:58:56;;;;;;;18.50;12.50;;;;;;;15.08;100.00;102008.38;5054771;28;20668;-77
2023/06/06 05:01:23;;;;;;;17.80;11.27;;;;;;;15.62;100.00;102006.63;5069443;28;20177;-77
2023/06/06 05:03:49;;;;;;;21.52;11.15;;;;;;;15.55;100.00;102016.03;5074520;28;20473;-78
2023/06/06 05:06:15;;;;;;;18.60;11.20;;;;;;;15.00;100.00;102015.06;5072171;28;20033;-77
2023/06/06 05:08:44;;;;;;;16.70;10.98;;;;;;;14.96;100.00;102010.88;5079708;28;20041;-77
2023/06/06 05:11:13;;;;;;;24.95;11.32;;;;;;;15.14;100.00;102016.88;5069446;28;20095;-77
2023/06/06 05:13:41;;;;;;;19.75;11.98;;;;;;;15.33;100.00;102015.72;5071266;28;20112;-77
2023/06/06 05:16:10;;;;;;;20.00;11.57;;;;;;;14.76;100.00;102017.50;5056605;28;20037;-76
2023/06/06 05:18:41;;;;;;;22.35;11.15;;;;;;;14.48;100.00;102018.31;5042336;28;20045;-77
2023/06/06 05:21:10;;;;;;;16.90;11.18;;;;;;;15.02;100.00;102023.06;5071047;28;20059;-76
2023/06/06 05:23:37;;;;;;;20.35;11.65;;;;;;;15.76;100.00;102025.44;5070821;28;20040;-77
2023/06/06 05:26:03;;;;;;;14.88;10.80;;;;;;;16.53;98.08;102015.69;5051420;28;20033;-76
2023/06/06 05:28:28;;;;;;;22.88;10.73;;;;;;;15.61;100.00;102023.69;5069830;28;20028;-77
2023/06/06 05:30:58;;;;;;;17.33;10.88;;;;;;;15.48;100.00;102020.09;5071163;28;20552;-77
2023/06/06 05:33:30;;;;;;;17.92;10.55;;;;;;;16.01;100.00;102010.31;5057404;28;20032;-77
2023/06/06 05:35:56;;;;;;;;;;;;;;;15.57;100.00;102021.34;5049469;28;20040;-78
2023/06/06 05:38:22;;;;;;;15.98;10.10;;;;;;;15.61;100.00;102022.84;5057558;28;20400;-78
2023/06/06 05:40:48;;;;;;;19.55;10.95;;;;;;;15.37;100.00;102023.50;5046644;28;20040;-75
2023/06/06 05:43:15;;;;;;;16.73;10.20;;;;;;;15.97;100.00;102014.19;5054491;28;20075;-78
2023/06/06 05:45:41;;;;;;;19.73;12.32;;;;;;;16.68;94.59;102007.50;5061686;28;20025;-75
2023/06/06 05:48:12;;;;;;;17.60;11.00;;;;;;;16.11;99.35;102014.09;5069942;28;22017;-75
2023/06/06 05:50:41;;;;;;;18.30;11.37;;;;;;;16.40;99.93;102022.88;5063444;28;20072;-76
2023/06/06 05:53:11;;;;;;;20.10;11.38;;;;;;;15.52;99.17;102018.94;5067375;28;20029;-76
2023/06/06 05:55:37;;;;;;;15.23;10.57;;;;;;;15.41;100.00;102024.13;5074162;28;20037;-76
2023/06/06 05:58:03;;;;;;;17.23;11.25;;;;;;;15.67;100.00;102017.97;5056617;28;20053;-77
2023/06/06 06:00:31;;;;;;;15.40;11.13;;;;;;;15.62;100.00;102024.59;5026436;28;20052;-77
2023/06/06 06:03:02;;;;;;;16.95;10.73;;;;;;;15.79;100.00;102013.59;5075505;28;20032;-76
2023/06/06 06:05:28;;;;;;;17.40;12.52;;;;;;;15.97;100.00;102017.75;5032164;28;20049;-77
2023/06/06 06:07:59;;;;;;;20.48;11.68;;;;;;;15.86;98.58;102022.09;5066285;28;20032;-77
2023/06/06 06:10:26;;;;;;;20.15;11.43;;;;;;;16.52;96.76;102013.09;5063885;28;20110;-76
2023/06/06 06:12:52;;;;;;;18.73;11.27;;;;;;;15.93;100.00;102023.44;5047543;28;20037;-76
2023/06/06 06:15:17;;;;;;;23.73;11.93;;;;;;;15.98;97.93;102024.00;5067421;28;20101;-76
2023/06/06 06:17:43;;;;;;;20.77;12.05;;;;;;;16.22;98.46;102016.09;5054484;28;20588;-76
2023/06/06 06:20:12;;;;;;;21.35;11.50;;;;;;;16.76;98.21;102016.78;5038223;28;20040;-75
2023/06/06 06:22:40;;;;;;;26.27;12.32;;;;;;;16.35;100.00;102008.88;5036678;28;21209;-75
2023/06/06 06:25:22;;;;;;;14.82;11.07;;;;;;;16.76;94.79;102011.41;5036719;28;20158;-78
2023/06/06 06:27:48;;;;;;;17.90;11.57;;;;;;;16.20;97.64;102012.63;5065247;28;20037;-77
2023/06/06 06:30:14;;;;;;;15.65;10.93;;;;;;;16.23;98.41;102015.13;5047564;28;20033;-75
2023/06/06 06:32:45;;;;;;;19.92;11.48;;;;;;;16.37;98.27;102014.19;5062406;28;20028;-77
2023/06/06 06:35:11;;;;;;;18.27;11.25;;;;;;;16.81;98.99;102016.47;5069352;28;20039;-76
2023/06/06 06:37:38;;;;;;;20.00;12.13;;;;;;;16.86;96.42;102017.00;5053177;28;20041;-77
2023/06/06 06:40:11;;;;;;;15.48;10.90;;;;;;;16.87;96.83;102007.97;5050895;28;20049;-76
2023/06/06 06:42:44;;;;;;;24.02;11.48;;;;;;;17.35;93.86;102010.75;5051145;28;20049;-75
2023/06/06 06:45:29;;;;;;;18.25;10.77;;;;;;;17.06;92.81;102013.72;5040742;28;20044;-77
2023/06/06 06:47:55;;;;;;;17.98;11.57;;;;;;;16.72;95.45;102012.59;5050071;28;20032;-79
2023/06/06 06:50:21;;;;;;;18.88;11.75;;;;;;;17.66;93.77;102016.59;5056156;28;21280;-79
2023/06/06 06:52:46;;;;;;;21.27;11.35;;;;;;;17.60;90.43;102009.81;5055739;28;20040;-78
2023/06/06 06:55:12;;;;;;;19.85;11.35;;;;;;;17.02;96.16;102016.78;5070615;28;20040;-78
2023/06/06 06:57:42;;;;;;;15.80;10.90;;;;;;;17.17;93.18;102018.38;5071139;28;20537;-78
2023/06/06 07:00:12;;;;;;;19.35;11.77;;;;;;;17.20;97.13;102011.88;5041944;28;20036;-76
2023/06/06 07:02:42;;;;;;;19.23;11.20;;;;;;;17.85;91.65;102012.44;5046386;28;20063;-76
2023/06/06 07:05:11;;;;;;;23.20;11.75;;;;;;;17.89;93.57;102025.69;5064628;28;20761;-76
2023/06/06 07:07:53;;;;;;;17.08;11.40;;;;;;;17.97;89.88;102016.06;5070889;28;20068;-76
2023/06/06 07:10:20;;;;;;;20.95;11.95;;;;;;;18.32;87.20;102007.94;5056539;28;20986;-75
2023/06/06 07:12:51;;;;;;;19.90;11.60;;;;;;;17.58;92.14;102025.25;5060470;28;20043;-76
2023/06/06 07:15:20;;;;;;;21.48;11.20;;;;;;;17.93;92.62;102019.97;5050296;28;20047;-78
2023/06/06 07:17:49;;;;;;;20.60;11.55;;;;;;;17.82;93.38;102026.16;5061247;28;20025;-77
2023/06/06 07:20:15;;;;;;;19.08;11.90;;;;;;;17.80;92.96;102024.53;5062641;28;20068;-77
2023/06/06 07:22:41;;;;;;;19.80;11.50;;;;;;;17.44;94.26;102020.88;5030104;28;20033;-77
2023/06/06 07:25:08;;;;;;;22.17;12.20;;;;;;;18.16;92.08;102020.88;5042509;28;20037;-76
2023/06/06 07:27:37;;;;;;;17.45;11.15;;;;;;;17.96;89.78;102025.09;5026847;28;20502;-77
2023/06/06 07:30:14;;;;;;;18.95;10.73;;;;;;;18.05;94.53;102015.47;5067691;28;20043;-76
2023/06/06 07:32:46;;;;;;;16.60;10.70;;;;;;;18.40;88.44;102014.59;5049268;28;20139;-76
2023/06/06 07:35:19;;;;;;;19.63;10.95;;;;;;;18.19;87.30;102017.09;5049708;28;20036;-77
2023/06/06 07:37:45;;;;;;;20.50;11.60;;;;;;;18.29;90.18;102018.13;5066220;28;20049;-77
2023/06/06 07:40:14;;;;;;;24.05;11.60;;;;;;;17.93;90.45;102011.88;5056123;28;20362;-77
2023/06/06 07:42:42;;;;;;;19.55;11.38;;;;;;;18.47;87.94;102005.00;5049460;28;20037;-76
2023/06/06 07:45:09;;;;;;;21.30;12.30;;;;;;;18.33;87.68;102003.41;5067559;28;20075;-76
2023/06/06 07:47:35;;;;;;;20.30;10.93;;;;;;;18.58;87.79;102000.50;5042014;28;20060;-76
2023/06/06 07:50:02;;;;;;;19.42;11.25;;;;;;;19.09;85.44;101999.19;5036025;28;20036;-77
2023/06/06 07:52:30;;;;;;;25.95;12.50;;;;;;;19.05;86.16;102003.13;5046693;28;20044;-79
2023/06/06 07:54:58;;;;;;;19.02;12.05;;;;;;;18.82;87.11;101996.84;5044343;28;21490;-77
2023/06/06 07:57:25;;;;;;;22.63;12.10;;;;;;;18.58;83.89;102008.63;5065212;28;20498;-78
2023/06/06 07:59:53;;;;;;;22.38;12.27;;;;;;;19.53;83.87;101997.38;5064481;28;20585;-75
2023/06/06 08:02:19;;;;;;;19.83;12.18;;;;;;;19.42;83.63;102001.84;5064174;28;20043;-77
2023/06/06 08:04:45;;;;;;;20.90;12.20;;;;;;;19.42;87.28;102004.53;5053535;28;20135;-76
2023/06/06 08:07:15;;;;;;;19.83;11.95;;;;;;;19.25;82.62;102002.38;5066778;28;20155;-78
2023/06/06 08:09:42;;;;;;;20.17;11.60;;;;;;;19.58;84.80;102006.00;5036846;28;20024;-78
2023/06/06 08:12:10;;;;;;;18.25;12.10;;;;;;;18.80;81.96;102002.38;5071617;28;20036;-77
2023/06/06 08:14:37;;;;;;;18.88;11.48;;;;;;;18.95;84.79;102007.56;5053788;28;20051;-77
2023/06/06 08:17:04;;;;;;;24.17;13.02;;;;;;;19.21;84.01;102005.44;5071627;28;20033;-77
2023/06/06 08:19:30;;;;;;;19.55;12.18;;;;;;;20.01;81.15;101988.88;5071744;28;20341;-77
2023/06/06 08:21:55;;;;;;;24.73;12.55;;;;;;;19.55;84.33;102008.97;5054504;28;20039;-77
2023/06/06 08:24:21;;;;;;;25.83;12.55;;;;;;;19.34;81.02;102004.34;5065138;28;20046;-76
2023/06/06 08:26:46;;;;;;;20.23;12.60;;;;;;;19.92;79.45;102004.91;5061638;28;20687;-77
2023/06/06 08:29:14;;;;;;;25.33;12.40;;;;;;;19.38;81.95;102004.94;5047212;28;20037;-77
2023/06/06 08:31:41;;;;;;;22.60;12.25;;;;;;;19.14;84.91;101991.56;5070100;28;20040;-76
2023/06/06 08:34:11;;;;;;;20.02;12.50;;;;;;;19.53;86.84;101995.56;5063881;28;20029;-76
2023/06/06 08:36:42;;;;;;;30.90;12.93;;;;;;;19.96;85.79;101983.84;5070206;28;20052;-76
2023/06/06 08:39:20;;;;;;;22.02;12.02;;;;;;;19.50;84.62;101993.09;5048904;28;20048;-77
2023/06/06 08:41:53;;;;;;;20.20;12.15;;;;;;;19.70;86.02;101980.66;5076037;28;20028;-77
2023/06/06 08:44:23;;;;;;;25.90;12.93;;;;;;;19.94;79.42;101987.69;5062811;28;20048;-76
2023/06/06 08:46:51;;;;;;;16.30;11.48;;;;;;;20.25;77.91;101984.09;5050192;28;20114;-77
2023/06/06 08:49:18;;;;;;;22.20;11.35;;;;;;;19.33;78.40;101989.09;5054666;28;20072;-78
2023/06/06 08:51:46;;;;;;;19.63;11.52;;;;;;;20.56;78.71;101974.16;5075459;28;20032;-76
2023/06/06 08:54:12;;;;;;;21.40;11.32;;;;;;;19.98;78.28;101981.00;5065042;28;20035;-77
2023/06/06 08:56:42;;;;;;;16.13;11.68;;;;;;;19.72;80.05;101985.94;5054164;28;20041;-76
2023/06/06 08:59:10;;;;;;;22.40;11.93;;;;;;;20.42;79.38;101977.19;5065419;28;20044;-77
2023/06/06 09:01:38;;;;;;;23.63;11.88;;;;;;;20.74;80.96;101973.56;5041410;28;20033;-77
2023/06/06 09:04:15;;;;;;;21.50;12.18;;;;;;;20.15;81.75;101985.88;5049890;28;20039;-77
2023/06/06 09:06:44;;;;;;;16.23;10.35;;;;;;;20.33;75.38;101975.28;5069705;28;20390;-78
2023/06/06 09:09:14;;;;;;;15.52;11.25;;;;;;;20.60;77.97;101972.91;5051785;28;20045;-76
2023/06/06 09:11:43;;;;;;;18.63;11.10;;;;;;;20.86;79.08;101969.75;5055575;28;20045;-78
2023/06/06 09:14:11;;;;;;;17.38;11.02;;;;;;;21.42;75.70;101969.22;5073752;28;20225;-77
2023/06/06 09:16:41;;;;;;;17.73;11.32;;;;;;;20.58;74.47;101977.63;5071855;28;20132;-78
2023/06/06 09:19:18;;;;;;;19.75;11.40;;;;;;;20.91;73.11;101973.75;5063243;28;20080;-77
2023/06/06 09:21:43;;;;;;;24.73;11.00;;;;;;;21.09;74.64;101965.84;5065044;28;20037;-78
2023/06/06 09:24:16;;;;;;;17.42;10.20;;;;;;;21.19;77.32;101966.72;5060751;28;20869;-76
2023/06/06 09:26:41;;;;;;;22.40;11.65;;;;;;;20.97;76.47;101972.34;5082339;28;20098;-78
2023/06/06 09:29:11;;;;;;;23.80;12.45;;;;;;;21.06;76.81;101973.38;5062577;28;20098;-76
2023/06/06 09:31:38;;;;;;;20.10;11.25;;;;;;;21.24;75.97;101974.44;5064081;28;20892;-78
2023/06/06 09:34:07;;;;;;;18.48;9.50;;;;;;;21.38;73.94;101967.78;5051068;28;20099;-77
2023/06/06 09:36:33;;;;;;;20.02;11.23;;;;;;;20.84;74.15;101969.03;5082878;28;20044;-79
2023/06/06 09:39:13;;;;;;;17.70;10.85;;;;;;;21.21;73.44;101964.72;5084373;28;20047;-78
2023/06/06 09:41:48;;;;;;;20.88;12.00;;;;;;;21.50;72.76;101969.38;5084408;28;20024;-78
2023/06/06 09:44:21;;;;;;;16.00;10.38;;;;;;;21.27;76.54;101965.16;5082447;28;20470;-77
2023/06/06 09:47:06;;;;;;;19.88;10.50;;;;;;;21.34;76.38;101971.81;5077363;28;20032;-77
2023/06/06 09:49:37;;;;;;;19.92;11.07;;;;;;;21.72;72.21;101960.09;5055773;28;20374;-78
2023/06/06 09:52:06;;;;;;;17.95;10.38;;;;;;;21.53;77.99;101966.38;5080622;28;20844;-78
2023/06/06 09:54:33;;;;;;;17.52;10.30;;;;;;;21.70;75.22;101962.97;5049352;28;20045;-80
2023/06/06 09:56:59;;;;;;;19.23;11.13;;;;;;;21.75;74.20;101961.69;5064307;28;20062;-78
2023/06/06 09:59:28;;;;;;;16.60;9.77;;;;;;;21.84;71.19;101958.09;5072405;28;20037;-78
2023/06/06 10:01:59;;;;;;;16.67;9.32;;;;;;;22.35;70.01;101948.78;5065268;28;20033;-77
2023/06/06 10:04:25;;;;;;;20.65;9.63;;;;;;;22.02;72.60;101956.38;5072282;28;20058;-78
2023/06/06 10:06:53;;;;;;;14.90;10.10;;;;;;;21.80;70.26;101951.25;5073818;28;20060;-78
2023/06/06 10:09:22;;;;;;;16.02;9.38;;;;;;;21.90;76.43;101950.25;5072240;28;20040;-77
2023/06/06 10:11:47;;;;;;;16.55;10.00;;;;;;;21.88;69.18;101954.94;5079129;28;20032;-78
2023/06/06 10:14:15;;;;;;;16.85;9.88;;;;;;;22.44;74.22;101954.19;5069526;28;20064;-78
2023/06/06 10:16:47;;;;;;;16.02;9.77;;;;;;;22.64;69.34;101948.66;5060387;28;20040;-77
2023/06/06 10:19:12;;;;;;;20.40;9.75;;;;;;;;;;5074049;28;20083;-78
2023/06/06 10:21:41;;;;;;;18.33;9.35;;;;;;;22.05;72.18;101947.94;5069630;28;20108;-77
2023/06/06 10:24:11;;;;;;;13.25;9.73;;;;;;;22.31;68.99;101945.50;5069288;28;20044;-77
2023/06/06 10:26:51;;;;;;;15.52;9.40;;;;;;;21.87;69.95;101950.53;5069807;28;20157;-79
2023/06/06 10:29:43;;;;;;;16.27;9.00;;;;;;;22.19;68.07;101950.25;5071540;28;20024;-79
2023/06/06 10:32:17;;;;;;;11.57;8.63;;;;;;;22.35;70.50;101943.34;5072465;28;20128;-78
2023/06/06 10:34:48;;;;;;;18.20;8.27;;;;;;;22.40;69.17;101941.06;5070962;28;20080;-79
2023/06/06 10:37:19;;;;;;;14.05;8.55;;;;;;;22.80;68.53;101937.19;5039244;28;21445;-78
2023/06/06 10:39:46;;;;;;;14.05;9.00;;;;;;;22.59;65.52;101940.09;5046730;28;21101;-80
2023/06/06 10:42:12;;;;;;;16.70;8.45;;;;;;;22.42;64.19;101939.03;5069476;28;20021;-78
2023/06/06 10:44:55;;;;;;;14.98;8.02;;;;;;;22.79;65.32;101939.00;5068045;28;20032;-77
2023/06/06 10:47:23;;;;;;;12.63;7.63;;;;;;;22.43;64.96;101935.31;5066763;28;20025;-77
2023/06/06 10:50:08;;;;;;;17.35;8.43;;;;;;;22.34;69.01;101933.47;5064276;28;20071;-79
2023/06/06 10:52:55;;;;;;;13.07;7.72;;;;;;;22.51;65.95;101934.56;5052624;28;20037;-78
2023/06/06 10:55:24;;;;;;;20.30;8.50;;;;;;;22.40;64.85;101922.88;5067159;28;20052;-78
2023/06/06 10:58:16;;;;;;;17.98;8.23;;;;;;;22.46;67.69;101933.16;5071431;28;20029;-79
2023/06/06 11:00:55;;;;;;;12.38;8.10;;;;;;;22.14;65.21;101940.78;5061243;28;20045;-76
2023/06/06 11:03:32;;;;;;;15.50;8.00;;;;;;;22.97;66.20;101939.97;5053353;28;20106;-77
2023/06/06 11:06:01;;;;;;;13.93;8.15;;;;;;;23.23;64.00;101931.09;5062995;28;20041;-80
2023/06/06 11:08:35;;;;;;;16.08;8.95;;;;;;;23.05;64.57;101933.78;5059586;28;20377;-77
2023/06/06 11:11:23;;;;;;;15.73;8.32;;;;;;;23.00;65.34;101938.84;5061918;28;20040;-76
2023/06/06 11:13:56;;;;;;;14.25;8.10;;;;;;;23.04;64.11;101939.34;5060357;28;20087;-79
2023/06/06 11:16:49;;;;;;;16.25;8.50;;;;;;;22.90;65.00;101932.59;5065173;28;20032;-78